createdAt,value
2019-05-29T00:00:43.442Z,12.87
2019-05-29T00:01:43.421Z,12.76
2019-05-29T00:02:43.412Z,12.80
2019-05-29T00:03:43.396Z,12.72
2019-05-29T00:04:43.442Z,12.72
2019-05-29T00:05:43.376Z,12.79
2019-05-29T00:06:43.360Z,12.76
2019-05-29T00:07:43.485Z,12.76
2019-05-29T00:08:43.346Z,12.73
2019-05-29T00:09:43.328Z,12.69
2019-05-29T00:10:43.317Z,12.63
2019-05-29T00:11:43.307Z,12.69
2019-05-29T00:12:43.293Z,12.59
2019-05-29T00:13:43.332Z,12.65
2019-05-29T00:14:43.277Z,12.61
2019-05-29T00:15:43.260Z,12.62
2019-05-29T00:16:43.295Z,12.62
2019-05-29T00:17:43.237Z,12.63
2019-05-29T00:18:43.478Z,12.54
2019-05-29T00:19:43.227Z,12.66
2019-05-29T00:20:43.206Z,12.63
2019-05-29T00:21:43.192Z,12.65
2019-05-29T00:22:43.181Z,12.62
2019-05-29T00:23:43.170Z,12.59
2019-05-29T00:24:43.209Z,12.61
2019-05-29T00:25:43.151Z,12.61
2019-05-29T00:26:43.136Z,12.59
2019-05-29T00:27:43.126Z,12.51
2019-05-29T00:28:43.113Z,12.55
2019-05-29T00:29:43.157Z,12.55
2019-05-29T00:30:43.090Z,12.61
2019-05-29T00:31:43.084Z,12.55
2019-05-29T00:32:43.095Z,12.50
2019-05-29T00:33:43.064Z,12.54
2019-05-29T00:34:43.045Z,12.48
2019-05-29T00:35:43.083Z,12.46
2019-05-29T00:36:43.282Z,12.48
2019-05-29T00:37:43.011Z,12.47
2019-05-29T00:38:42.999Z,12.59
2019-05-29T00:39:42.990Z,12.54
2019-05-29T00:40:42.977Z,12.50
2019-05-29T00:41:43.017Z,12.53
2019-05-29T00:42:43.009Z,12.48
2019-05-29T00:43:42.944Z,12.43
2019-05-29T00:44:42.932Z,12.35
2019-05-29T00:45:42.919Z,12.40
2019-05-29T00:46:42.907Z,12.41
2019-05-29T00:47:42.900Z,12.29
2019-05-29T00:48:42.929Z,12.29
2019-05-29T00:49:42.877Z,12.33
2019-05-29T00:50:42.915Z,12.25
2019-05-29T00:51:42.851Z,12.18
2019-05-29T00:52:42.841Z,12.18
2019-05-29T00:53:42.832Z,12.18
2019-05-29T00:54:42.820Z,12.11
2019-05-29T00:55:42.865Z,12.22
2019-05-29T00:56:42.795Z,12.25
2019-05-29T00:57:42.836Z,12.22
2019-05-29T00:58:42.772Z,12.23
2019-05-29T00:59:42.762Z,12.13
2019-05-29T01:00:42.749Z,12.17
2019-05-29T01:01:42.738Z,12.07
2019-05-29T01:02:42.791Z,12.00
2019-05-29T01:03:42.766Z,12.07
2019-05-29T01:04:42.726Z,12.13
2019-05-29T01:05:42.697Z,12.08
2019-05-29T01:06:42.683Z,11.99
2019-05-29T01:07:42.670Z,12.07
2019-05-29T01:08:42.658Z,11.95
2019-05-29T01:09:42.693Z,11.96
2019-05-29T01:10:42.636Z,12.03
2019-05-29T01:11:42.641Z,11.99
2019-05-29T01:12:42.655Z,11.96
2019-05-29T01:13:42.602Z,11.91
2019-05-29T01:14:50.082Z,11.95
2019-05-29T01:15:43.578Z,11.96
2019-05-29T01:16:42.568Z,11.88
2019-05-29T01:17:42.604Z,11.91
2019-05-29T01:18:42.544Z,11.84
2019-05-29T01:19:42.533Z,11.74
2019-05-29T01:20:42.523Z,11.74
2019-05-29T01:21:42.538Z,11.66
2019-05-29T01:22:42.499Z,11.69
2019-05-29T01:23:42.538Z,11.69
2019-05-29T01:24:42.475Z,11.64
2019-05-29T01:25:42.471Z,11.71
2019-05-29T01:26:42.460Z,11.56
2019-05-29T01:27:42.484Z,11.70
2019-05-29T01:28:42.436Z,11.55
2019-05-29T01:29:42.420Z,11.55
2019-05-29T01:30:42.407Z,11.54
2019-05-29T01:31:42.395Z,11.58
2019-05-29T01:32:42.431Z,11.58
2019-05-29T01:33:42.377Z,11.52
2019-05-29T01:34:42.406Z,11.54
2019-05-29T01:35:42.402Z,11.46
2019-05-29T01:36:42.402Z,11.51
2019-05-29T01:37:42.328Z,11.51
2019-05-29T01:38:42.316Z,11.45
2019-05-29T01:39:42.305Z,11.48
2019-05-29T01:40:42.293Z,11.41
2019-05-29T01:41:42.282Z,11.34
2019-05-29T01:42:42.319Z,11.38
2019-05-29T01:43:42.258Z,11.31
2019-05-29T01:44:42.251Z,11.34
2019-05-29T01:45:42.284Z,11.27
2019-05-29T01:46:42.276Z,11.25
2019-05-29T01:47:42.216Z,11.16
2019-05-29T01:48:42.203Z,11.11
2019-05-29T01:49:42.192Z,11.11
2019-05-29T01:50:42.204Z,10.91
2019-05-29T01:51:42.169Z,11.00
2019-05-29T01:52:42.207Z,10.93
2019-05-29T01:53:42.145Z,10.98
2019-05-29T01:54:42.133Z,10.85
2019-05-29T01:55:42.127Z,10.91
2019-05-29T01:56:42.161Z,10.86
2019-05-29T01:57:42.102Z,10.76
2019-05-29T01:58:42.088Z,10.75
2019-05-29T01:59:42.127Z,10.68
2019-05-29T02:00:42.068Z,10.75
2019-05-29T02:01:42.099Z,10.64
2019-05-29T02:02:42.044Z,10.61
2019-05-29T02:03:42.078Z,10.64
2019-05-29T02:04:42.025Z,10.57
2019-05-29T02:05:42.015Z,10.70
2019-05-29T02:06:42.001Z,10.75
2019-05-29T02:07:41.987Z,10.70
2019-05-29T02:08:42.025Z,10.67
2019-05-29T02:09:41.965Z,10.73
2019-05-29T02:10:41.954Z,10.70
2019-05-29T02:11:41.984Z,10.68
2019-05-29T02:12:41.931Z,10.55
2019-05-29T02:13:41.920Z,10.55
2019-05-29T02:14:41.911Z,10.65
2019-05-29T02:15:41.897Z,10.73
2019-05-29T02:16:41.885Z,10.60
2019-05-29T02:17:41.916Z,10.57
2019-05-29T02:18:41.863Z,10.62
2019-05-29T02:19:41.854Z,10.60
2019-05-29T02:20:41.882Z,10.52
2019-05-29T02:21:41.828Z,10.48
2019-05-29T02:22:41.859Z,10.43
2019-05-29T02:23:41.808Z,10.42
2019-05-29T02:24:41.794Z,10.48
2019-05-29T02:25:41.786Z,10.36
2019-05-29T02:26:41.773Z,10.35
2019-05-29T02:27:41.760Z,10.38
2019-05-29T02:28:41.793Z,10.35
2019-05-29T02:29:41.789Z,10.38
2019-05-29T02:30:41.727Z,10.35
2019-05-29T02:31:41.721Z,10.34
2019-05-29T02:32:41.703Z,10.30
2019-05-29T02:33:41.693Z,10.26
2019-05-29T02:34:41.689Z,10.24
2019-05-29T02:35:41.712Z,10.28
2019-05-29T02:36:41.703Z,10.30
2019-05-29T02:37:41.653Z,10.28
2019-05-29T02:38:41.636Z,10.12
2019-05-29T02:39:41.629Z,10.17
2019-05-29T02:40:41.613Z,10.09
2019-05-29T02:41:41.642Z,10.18
2019-05-29T02:42:41.597Z,10.10
2019-05-29T02:43:41.610Z,10.02
2019-05-29T02:44:41.576Z,10.03
2019-05-29T02:45:53.628Z,10.06
2019-05-29T02:46:42.584Z,10.02
2019-05-29T02:47:41.533Z,10.08
2019-05-29T02:48:41.563Z,9.99
2019-05-29T02:49:41.509Z,10.06
2019-05-29T02:50:41.497Z,10.02
2019-05-29T02:51:41.491Z,9.94
2019-05-29T02:52:41.476Z,9.90
2019-05-29T02:53:41.467Z,9.94
2019-05-29T02:54:41.493Z,9.96
2019-05-29T02:55:41.441Z,9.94
2019-05-29T02:56:42.573Z,9.94
2019-05-29T02:57:41.418Z,9.90
2019-05-29T02:58:41.453Z,9.94
2019-05-29T02:59:41.395Z,9.94
2019-05-29T03:00:41.386Z,9.88
2019-05-29T03:01:41.380Z,9.88
2019-05-29T03:02:41.404Z,9.90
2019-05-29T03:03:41.353Z,9.84
2019-05-29T03:04:41.338Z,9.80
2019-05-29T03:05:41.337Z,9.81
2019-05-29T03:06:41.317Z,9.84
2019-05-29T03:07:41.306Z,9.83
2019-05-29T03:08:41.332Z,9.87
2019-05-29T03:09:41.287Z,9.85
2019-05-29T03:10:41.270Z,9.85
2019-05-29T03:11:41.323Z,9.73
2019-05-29T03:12:41.252Z,9.78
2019-05-29T03:13:41.245Z,9.67
2019-05-29T03:14:41.267Z,9.75
2019-05-29T03:15:41.215Z,9.70
2019-05-29T03:16:41.206Z,9.72
2019-05-29T03:17:41.193Z,9.67
2019-05-29T03:18:41.180Z,9.67
2019-05-29T03:19:41.211Z,9.67
2019-05-29T03:20:41.158Z,9.59
2019-05-29T03:21:41.145Z,9.55
2019-05-29T03:22:41.135Z,9.60
2019-05-29T03:23:41.127Z,9.51
2019-05-29T03:24:41.158Z,9.51
2019-05-29T03:25:41.103Z,9.48
2019-05-29T03:26:41.092Z,9.44
2019-05-29T03:27:41.127Z,9.47
2019-05-29T03:28:41.107Z,9.47
2019-05-29T03:29:41.094Z,9.54
2019-05-29T03:30:45.778Z,9.48
2019-05-29T03:31:47.189Z,9.45
2019-05-29T03:32:47.576Z,9.54
2019-05-29T03:33:49.168Z,9.47
2019-05-29T03:34:46.726Z,9.51
2019-05-29T03:35:47.678Z,9.48
2019-05-29T03:36:47.886Z,9.50
2019-05-29T03:37:41.963Z,9.48
2019-05-29T03:38:40.963Z,9.47
2019-05-29T03:39:40.985Z,9.51
2019-05-29T03:40:40.936Z,9.40
2019-05-29T03:41:40.959Z,9.41
2019-05-29T03:42:40.909Z,9.41
2019-05-29T03:43:40.937Z,9.40
2019-05-29T03:44:40.889Z,9.42
2019-05-29T03:45:40.916Z,9.40
2019-05-29T03:46:45.711Z,9.40
2019-05-29T03:47:41.866Z,9.47
2019-05-29T03:48:40.879Z,9.41
2019-05-29T03:49:40.840Z,9.33
2019-05-29T03:50:40.880Z,9.41
2019-05-29T03:51:40.813Z,9.30
2019-05-29T03:52:40.804Z,9.37
2019-05-29T03:53:40.831Z,9.40
2019-05-29T03:54:40.781Z,9.37
2019-05-29T03:55:40.762Z,9.34
2019-05-29T03:56:40.763Z,9.36
2019-05-29T03:57:40.737Z,9.27
2019-05-29T03:58:40.766Z,9.40
2019-05-29T03:59:40.760Z,9.40
2019-05-29T04:00:45.895Z,9.40
2019-05-29T04:01:41.692Z,9.36
2019-05-29T04:02:40.682Z,9.34
2019-05-29T04:03:40.723Z,9.33
2019-05-29T04:04:40.666Z,9.36
2019-05-29T04:05:40.649Z,9.26
2019-05-29T04:06:40.638Z,9.26
2019-05-29T04:07:40.624Z,9.26
2019-05-29T04:08:40.615Z,9.19
2019-05-29T04:09:40.642Z,9.36
2019-05-29T04:10:40.631Z,9.29
2019-05-29T04:11:40.580Z,9.30
2019-05-29T04:12:40.589Z,9.26
2019-05-29T04:13:40.602Z,9.26
2019-05-29T04:14:40.549Z,9.32
2019-05-29T04:15:40.538Z,9.36
2019-05-29T04:16:58.534Z,9.34
2019-05-29T04:17:41.510Z,9.45
2019-05-29T04:18:40.500Z,9.48
2019-05-29T04:19:40.533Z,9.48
2019-05-29T04:20:40.480Z,9.54
2019-05-29T04:21:40.463Z,9.42
2019-05-29T04:22:40.454Z,9.54
2019-05-29T04:23:40.450Z,9.44
2019-05-29T04:24:40.433Z,9.48
2019-05-29T04:25:43.077Z,9.47
2019-05-29T04:26:40.408Z,9.48
2019-05-29T04:27:40.439Z,9.47
2019-05-29T04:28:40.391Z,9.51
2019-05-29T04:29:40.376Z,9.54
2019-05-29T04:30:40.366Z,9.62
2019-05-29T04:31:40.352Z,9.62
2019-05-29T04:32:40.379Z,9.69
2019-05-29T04:33:40.386Z,9.60
2019-05-29T04:34:40.321Z,9.60
2019-05-29T04:35:40.347Z,9.63
2019-05-29T04:36:40.296Z,9.73
2019-05-29T04:37:40.357Z,9.65
2019-05-29T04:38:40.564Z,9.72
2019-05-29T04:39:40.265Z,9.75
2019-05-29T04:40:40.296Z,9.72
2019-05-29T04:41:40.243Z,9.72
2019-05-29T04:42:40.366Z,9.70
2019-05-29T04:43:40.216Z,9.78
2019-05-29T04:44:41.127Z,9.83
2019-05-29T04:45:40.353Z,9.75
2019-05-29T04:46:40.681Z,9.87
2019-05-29T04:47:40.170Z,9.88
2019-05-29T04:48:40.577Z,9.83
2019-05-29T04:49:40.191Z,9.88
2019-05-29T04:50:40.800Z,9.90
2019-05-29T04:51:40.180Z,9.81
2019-05-29T04:52:40.556Z,9.90
2019-05-29T04:53:40.182Z,9.87
2019-05-29T04:54:40.350Z,9.99
2019-05-29T04:55:40.078Z,9.93
2019-05-29T04:56:40.074Z,9.98
2019-05-29T04:57:40.096Z,10.03
2019-05-29T04:58:40.045Z,10.01
2019-05-29T04:59:40.035Z,10.03
2019-05-29T05:00:40.025Z,10.03
2019-05-29T05:01:40.022Z,10.03
2019-05-29T05:02:40.051Z,10.01
2019-05-29T05:03:40.035Z,9.94
2019-05-29T05:04:39.980Z,9.87
2019-05-29T05:05:39.970Z,9.85
2019-05-29T05:06:39.957Z,9.83
2019-05-29T05:07:39.959Z,9.90
2019-05-29T05:08:40.309Z,9.93
2019-05-29T05:09:39.962Z,9.96
2019-05-29T05:10:41.026Z,10.08
2019-05-29T05:11:39.908Z,10.10
2019-05-29T05:12:40.249Z,10.17
2019-05-29T05:13:39.881Z,10.26
2019-05-29T05:14:39.924Z,10.23
2019-05-29T05:15:40.219Z,10.30
2019-05-29T05:16:40.066Z,10.27
2019-05-29T05:17:40.200Z,10.36
2019-05-29T05:18:40.344Z,10.27
2019-05-29T05:19:40.138Z,10.23
2019-05-29T05:20:40.412Z,10.24
2019-05-29T05:21:40.274Z,10.26
2019-05-29T05:22:40.940Z,10.30
2019-05-29T05:23:40.538Z,10.30
2019-05-29T05:24:43.503Z,10.34
2019-05-29T05:25:40.999Z,10.35
2019-05-29T05:26:40.479Z,10.45
2019-05-29T05:27:40.635Z,10.49
2019-05-29T05:28:43.534Z,10.46
2019-05-29T05:29:41.436Z,10.49
2019-05-29T05:30:40.818Z,10.52
2019-05-29T05:31:40.843Z,10.60
2019-05-29T05:32:40.959Z,10.55
2019-05-29T05:33:40.587Z,10.52
2019-05-29T05:34:40.904Z,10.58
2019-05-29T05:35:41.111Z,10.61
2019-05-29T05:36:40.889Z,10.75
2019-05-29T05:37:40.944Z,10.85
2019-05-29T05:38:40.875Z,10.79
2019-05-29T05:39:41.092Z,10.73
2019-05-29T05:40:43.048Z,10.83
2019-05-29T05:41:39.614Z,10.78
2019-05-29T05:42:39.588Z,10.91
2019-05-29T05:43:39.536Z,10.86
2019-05-29T05:44:39.544Z,10.87
2019-05-29T05:45:39.538Z,10.90
2019-05-29T05:46:39.506Z,10.98
2019-05-29T05:47:53.593Z,10.95
2019-05-29T05:48:41.517Z,10.98
2019-05-29T05:49:39.618Z,11.08
2019-05-29T05:50:39.515Z,11.11
2019-05-29T05:51:42.800Z,11.12
2019-05-29T05:52:41.532Z,11.13
2019-05-29T05:53:39.543Z,11.20
2019-05-29T05:54:39.602Z,11.11
2019-05-29T05:55:39.806Z,11.18
2019-05-29T05:56:39.733Z,11.13
2019-05-29T05:57:39.723Z,11.18
2019-05-29T05:58:39.945Z,11.20
2019-05-29T05:59:39.889Z,11.15
2019-05-29T06:00:39.923Z,11.22
2019-05-29T06:01:40.059Z,11.28
2019-05-29T06:02:40.115Z,11.22
2019-05-29T06:03:40.611Z,11.19
2019-05-29T06:04:40.046Z,11.30
2019-05-29T06:05:40.233Z,11.28
2019-05-29T06:06:40.268Z,11.20
2019-05-29T06:07:40.437Z,11.22
2019-05-29T06:08:40.214Z,11.22
2019-05-29T06:09:40.436Z,11.28
2019-05-29T06:10:40.257Z,11.38
2019-05-29T06:11:40.316Z,11.41
2019-05-29T06:12:40.494Z,11.52
2019-05-29T06:13:40.413Z,11.52
2019-05-29T06:14:40.565Z,11.48
2019-05-29T06:15:40.543Z,11.59
2019-05-29T06:16:40.620Z,11.55
2019-05-29T06:17:39.158Z,11.64
2019-05-29T06:18:39.207Z,11.61
2019-05-29T06:19:39.125Z,11.62
2019-05-29T06:20:39.224Z,11.61
2019-05-29T06:21:39.110Z,11.62
2019-05-29T06:22:39.285Z,11.54
2019-05-29T06:23:39.194Z,11.67
2019-05-29T06:24:39.083Z,11.70
2019-05-29T06:25:40.725Z,11.59
2019-05-29T06:26:39.122Z,11.69
2019-05-29T06:27:39.324Z,11.70
2019-05-29T06:28:39.196Z,11.64
2019-05-29T06:29:39.381Z,11.79
2019-05-29T06:30:41.289Z,11.76
2019-05-29T06:31:39.433Z,11.70
2019-05-29T06:32:39.445Z,11.71
2019-05-29T06:33:39.482Z,11.76
2019-05-29T06:34:39.571Z,11.87
2019-05-29T06:35:39.635Z,11.77
2019-05-29T06:36:39.608Z,11.87
2019-05-29T06:37:39.584Z,11.91
2019-05-29T06:38:40.440Z,11.87
2019-05-29T06:39:39.647Z,11.91
2019-05-29T06:40:40.177Z,11.93
2019-05-29T06:41:40.142Z,12.04
2019-05-29T06:42:39.866Z,12.03
2019-05-29T06:43:39.891Z,12.05
2019-05-29T06:44:39.834Z,12.11
2019-05-29T06:45:39.952Z,12.03
2019-05-29T06:46:40.294Z,11.96
2019-05-29T06:47:40.629Z,12.10
2019-05-29T06:48:46.159Z,12.21
2019-05-29T06:49:40.123Z,12.04
2019-05-29T06:50:39.443Z,12.08
2019-05-29T06:51:39.315Z,11.96
2019-05-29T06:52:39.494Z,12.13
2019-05-29T06:53:39.812Z,12.28
2019-05-29T06:54:39.997Z,12.21
2019-05-29T06:55:39.860Z,12.30
2019-05-29T06:56:39.717Z,12.36
2019-05-29T06:57:40.129Z,12.36
2019-05-29T06:58:39.926Z,12.47
2019-05-29T06:59:38.715Z,12.36
2019-05-29T07:00:39.391Z,12.46
2019-05-29T07:01:39.448Z,12.46
2019-05-29T07:02:38.654Z,12.43
2019-05-29T07:03:39.692Z,12.44
2019-05-29T07:04:38.635Z,12.32
2019-05-29T07:05:39.802Z,12.40
2019-05-29T07:06:40.590Z,12.38
2019-05-29T07:07:40.181Z,12.35
2019-05-29T07:08:44.028Z,12.41
2019-05-29T07:09:39.596Z,12.33
2019-05-29T07:10:38.638Z,12.46
2019-05-29T07:11:39.060Z,12.36
2019-05-29T07:12:38.524Z,12.54
2019-05-29T07:13:41.873Z,12.59
2019-05-29T07:14:40.271Z,12.58
2019-05-29T07:15:38.704Z,12.62
2019-05-29T07:16:45.357Z,12.69
2019-05-29T07:17:40.446Z,12.73
2019-05-29T07:18:38.636Z,12.73
2019-05-29T07:19:48.954Z,12.95
2019-05-29T07:20:40.593Z,13.05
2019-05-29T07:21:38.865Z,13.19
2019-05-29T07:22:38.971Z,13.11
2019-05-29T07:23:38.775Z,13.02
2019-05-29T07:24:38.827Z,13.05
2019-05-29T07:25:38.783Z,13.17
2019-05-29T07:26:38.894Z,13.06
2019-05-29T07:27:38.829Z,13.13
2019-05-29T07:28:46.849Z,13.11
2019-05-29T07:29:39.344Z,13.02
2019-05-29T07:30:39.150Z,13.16
2019-05-29T07:31:38.840Z,13.20
2019-05-29T07:32:40.444Z,13.21
2019-05-29T07:33:39.000Z,13.29
2019-05-29T07:34:53.684Z,13.27
2019-05-29T07:35:39.354Z,13.40
2019-05-29T07:36:39.778Z,13.32
2019-05-29T07:37:39.555Z,13.42
2019-05-29T07:38:39.561Z,13.43
2019-05-29T07:39:39.376Z,13.49
2019-05-29T07:40:38.499Z,13.46
2019-05-29T07:41:39.471Z,13.38
2019-05-29T07:42:40.161Z,13.40
2019-05-29T07:43:39.689Z,13.40
2019-05-29T07:44:38.160Z,13.36
2019-05-29T07:45:38.167Z,13.45
2019-05-29T07:46:38.153Z,13.35
2019-05-29T07:47:38.413Z,13.24
2019-05-29T07:48:38.483Z,13.29
2019-05-29T07:50:34.309Z,13.20
2019-05-29T07:50:40.088Z,13.21
2019-05-29T07:51:38.252Z,13.27
2019-05-29T07:52:38.638Z,13.24
2019-05-29T07:53:38.266Z,13.39
2019-05-29T07:54:39.841Z,13.38
2019-05-29T07:55:38.402Z,13.55
2019-05-29T07:56:38.360Z,13.55
2019-05-29T07:57:38.828Z,13.53
2019-05-29T07:58:38.710Z,13.58
2019-05-29T07:59:38.568Z,13.58
2019-05-29T08:01:00.992Z,13.58
2019-05-29T08:01:38.974Z,13.53
2019-05-29T08:02:39.321Z,13.64
2019-05-29T08:03:39.219Z,13.64
2019-05-29T08:04:38.892Z,13.67
2019-05-29T08:05:39.183Z,13.67
2019-05-29T08:06:38.952Z,13.76
2019-05-29T08:07:39.348Z,13.91
2019-05-29T08:08:39.097Z,13.97
2019-05-29T08:09:39.227Z,14.08
2019-05-29T08:10:39.819Z,14.13
2019-05-29T08:11:37.886Z,13.96
2019-05-29T08:12:41.657Z,13.96
2019-05-29T08:13:39.486Z,14.01
2019-05-29T08:14:37.839Z,14.08
2019-05-29T08:15:52.108Z,13.91
2019-05-29T08:16:39.762Z,13.97
2019-05-29T08:17:37.792Z,13.97
2019-05-29T08:18:37.803Z,14.08
2019-05-29T08:19:37.770Z,14.11
2019-05-29T08:20:37.769Z,14.31
2019-05-29T08:21:37.798Z,14.36
2019-05-29T08:22:37.733Z,14.34
2019-05-29T08:23:37.774Z,14.30
2019-05-29T08:24:37.735Z,14.23
2019-05-29T08:25:37.703Z,14.28
2019-05-29T08:26:37.696Z,14.36
2019-05-29T08:27:37.738Z,14.37
2019-05-29T08:28:37.684Z,14.38
2019-05-29T08:29:37.695Z,14.51
2019-05-29T08:30:37.690Z,14.33
2019-05-29T08:31:37.637Z,14.23
2019-05-29T08:32:37.887Z,14.40
2019-05-29T08:33:37.669Z,14.34
2019-05-29T08:34:37.645Z,14.40
2019-05-29T08:35:37.599Z,14.28
2019-05-29T08:36:37.753Z,14.27
2019-05-29T08:37:37.595Z,14.34
2019-05-29T08:38:37.616Z,14.55
2019-05-29T08:39:37.598Z,14.55
2019-05-29T08:40:37.552Z,14.58
2019-05-29T08:41:37.525Z,14.78
2019-05-29T08:42:37.541Z,14.70
2019-05-29T08:43:37.528Z,14.67
2019-05-29T08:44:37.490Z,14.66
2019-05-29T08:45:37.538Z,14.52
2019-05-29T08:46:37.555Z,14.56
2019-05-29T08:47:37.571Z,14.58
2019-05-29T08:48:37.461Z,14.63
2019-05-29T08:49:37.519Z,14.67
2019-05-29T08:50:37.429Z,14.59
2019-05-29T08:51:37.411Z,14.64
2019-05-29T08:52:37.497Z,14.66
2019-05-29T08:53:37.404Z,14.78
2019-05-29T08:54:37.451Z,14.74
2019-05-29T08:55:37.439Z,14.86
2019-05-29T08:56:37.398Z,14.74
2019-05-29T08:57:37.427Z,14.85
2019-05-29T08:58:38.169Z,14.86
2019-05-29T08:59:37.323Z,14.95
2019-05-29T09:00:37.366Z,14.93
2019-05-29T09:01:37.305Z,15.01
2019-05-29T09:02:37.319Z,14.99
2019-05-29T09:03:37.358Z,14.97
2019-05-29T09:04:37.346Z,14.95
2019-05-29T09:05:37.252Z,14.97
2019-05-29T09:06:37.293Z,14.92
2019-05-29T09:07:37.266Z,14.90
2019-05-29T09:08:37.221Z,14.86
2019-05-29T09:09:37.247Z,14.96
2019-05-29T09:10:37.275Z,14.99
2019-05-29T09:11:37.194Z,14.99
2019-05-29T09:12:37.182Z,14.92
2019-05-29T09:13:37.179Z,14.90
2019-05-29T09:14:37.233Z,14.89
2019-05-29T09:15:37.145Z,14.93
2019-05-29T09:16:37.133Z,15.04
2019-05-29T09:17:37.137Z,15.14
2019-05-29T09:18:37.152Z,15.30
2019-05-29T09:19:37.100Z,15.41
2019-05-29T09:21:00.894Z,15.38
2019-05-29T09:21:38.089Z,15.41
2019-05-29T09:22:37.069Z,15.35
2019-05-29T09:23:37.073Z,15.43
2019-05-29T09:24:37.048Z,15.40
2019-05-29T09:25:37.119Z,15.26
2019-05-29T09:26:37.021Z,15.29
2019-05-29T09:27:37.041Z,15.25
2019-05-29T09:28:37.006Z,15.25
2019-05-29T09:29:37.022Z,15.27
2019-05-29T09:30:36.974Z,15.30
2019-05-29T09:31:37.012Z,15.58
2019-05-29T09:32:49.551Z,15.80
2019-05-29T09:33:37.942Z,15.88
2019-05-29T09:34:36.953Z,15.98
2019-05-29T09:35:36.922Z,15.84
2019-05-29T09:36:36.958Z,15.80
2019-05-29T09:37:36.924Z,15.54
2019-05-29T09:38:37.003Z,15.65
2019-05-29T09:39:36.873Z,15.73
2019-05-29T09:40:36.903Z,15.76
2019-05-29T09:41:36.916Z,15.80
2019-05-29T09:42:36.890Z,15.84
2019-05-29T09:43:36.834Z,15.80
2019-05-29T09:44:39.299Z,15.98
2019-05-29T09:45:36.826Z,15.99
2019-05-29T09:46:36.798Z,15.88
2019-05-29T09:47:36.924Z,15.87
2019-05-29T09:48:49.232Z,15.81
2019-05-29T09:49:37.762Z,15.77
2019-05-29T09:50:49.547Z,15.52
2019-05-29T09:51:37.772Z,15.58
2019-05-29T09:52:36.790Z,15.77
2019-05-29T09:53:36.731Z,15.88
2019-05-29T09:54:36.885Z,15.98
2019-05-29T09:55:36.799Z,16.13
2019-05-29T09:56:36.688Z,16.37
2019-05-29T09:57:36.947Z,16.40
2019-05-29T09:58:36.662Z,16.32
2019-05-29T09:59:36.782Z,16.28
2019-05-29T10:00:36.647Z,16.22
2019-05-29T10:01:37.406Z,16.22
2019-05-29T10:02:36.921Z,16.24
2019-05-29T10:03:36.602Z,16.39
2019-05-29T10:04:36.612Z,16.52
2019-05-29T10:05:36.584Z,16.80
2019-05-29T10:06:36.577Z,16.83
2019-05-29T10:07:36.619Z,16.69
2019-05-29T10:08:36.624Z,16.69
2019-05-29T10:09:36.552Z,16.69
2019-05-29T10:10:36.552Z,16.74
2019-05-29T10:11:36.546Z,16.90
2019-05-29T10:12:36.514Z,16.87
2019-05-29T10:13:36.530Z,16.92
2019-05-29T10:14:36.604Z,17.31
2019-05-29T10:15:36.512Z,17.52
2019-05-29T10:16:36.488Z,17.49
2019-05-29T10:17:47.975Z,17.53
2019-05-29T10:18:37.465Z,17.41
2019-05-29T10:19:36.451Z,17.12
2019-05-29T10:20:36.435Z,17.04
2019-05-29T10:21:40.543Z,17.06
2019-05-29T10:22:36.512Z,17.06
2019-05-29T10:23:36.434Z,16.94
2019-05-29T10:24:36.394Z,16.88
2019-05-29T10:25:36.504Z,17.06
2019-05-29T10:26:36.399Z,17.34
2019-05-29T10:27:36.343Z,17.45
2019-05-29T10:28:50.359Z,17.49
2019-05-29T10:29:37.329Z,17.57
2019-05-29T10:30:36.349Z,17.68
2019-05-29T10:31:36.309Z,17.72
2019-05-29T10:32:36.351Z,17.78
2019-05-29T10:33:36.274Z,17.56
2019-05-29T10:34:36.283Z,17.30
2019-05-29T10:35:36.248Z,17.32
2019-05-29T10:36:36.316Z,17.38
2019-05-29T10:37:36.245Z,17.39
2019-05-29T10:38:36.251Z,17.52
2019-05-29T10:39:36.208Z,17.59
2019-05-29T10:40:36.256Z,17.57
2019-05-29T10:41:36.179Z,17.65
2019-05-29T10:42:36.203Z,17.86
2019-05-29T10:43:36.197Z,18.08
2019-05-29T10:44:36.227Z,18.13
2019-05-29T10:45:36.154Z,18.06
2019-05-29T10:46:36.136Z,18.02
2019-05-29T10:47:36.855Z,17.88
2019-05-29T10:48:36.120Z,17.88
2019-05-29T10:49:36.133Z,17.81
2019-05-29T10:50:36.081Z,17.66
2019-05-29T10:51:36.079Z,17.34
2019-05-29T10:52:36.063Z,17.32
2019-05-29T10:53:36.098Z,17.34
2019-05-29T10:54:39.123Z,17.43
2019-05-29T10:55:36.078Z,17.52
2019-05-29T10:56:36.101Z,17.87
2019-05-29T10:57:36.063Z,18.13
2019-05-29T10:58:48.583Z,18.33
2019-05-29T10:59:36.982Z,18.43
2019-05-29T11:00:38.855Z,18.56
2019-05-29T11:01:35.979Z,18.57
2019-05-29T11:02:36.032Z,18.56
2019-05-29T11:03:35.944Z,18.63
2019-05-29T11:04:36.008Z,18.54
2019-05-29T11:05:36.001Z,18.46
2019-05-29T11:06:40.191Z,18.42
2019-05-29T11:07:36.905Z,18.66
2019-05-29T11:08:35.887Z,18.70
2019-05-29T11:09:44.426Z,18.75
2019-05-29T11:10:36.967Z,18.76
2019-05-29T11:11:35.888Z,18.75
2019-05-29T11:12:39.289Z,18.78
2019-05-29T11:13:35.842Z,18.89
2019-05-29T11:14:35.872Z,18.71
2019-05-29T11:15:35.877Z,18.89
2019-05-29T11:16:39.583Z,19.01
2019-05-29T11:17:35.901Z,19.00
2019-05-29T11:18:35.852Z,19.05
2019-05-29T11:19:35.827Z,19.17
2019-05-29T11:20:35.764Z,19.19
2019-05-29T11:21:35.743Z,19.17
2019-05-29T11:22:35.877Z,19.09
2019-05-29T11:23:35.715Z,19.07
2019-05-29T11:24:35.745Z,18.98
2019-05-29T11:25:35.710Z,18.81
2019-05-29T11:26:35.728Z,18.75
2019-05-29T11:27:35.680Z,18.82
2019-05-29T11:28:35.663Z,18.85
2019-05-29T11:29:35.646Z,18.93
2019-05-29T11:30:35.712Z,19.12
2019-05-29T11:31:35.704Z,19.13
2019-05-29T11:32:35.641Z,19.17
2019-05-29T11:33:35.604Z,19.00
2019-05-29T11:34:35.605Z,18.86
2019-05-29T11:35:35.584Z,18.58
2019-05-29T11:36:35.610Z,18.56
2019-05-29T11:37:35.609Z,18.41
2019-05-29T11:38:35.639Z,18.23
2019-05-29T11:39:35.545Z,18.38
2019-05-29T11:40:35.825Z,18.94
2019-05-29T11:41:35.612Z,19.39
2019-05-29T11:42:35.537Z,19.74
2019-05-29T11:43:35.586Z,19.92
2019-05-29T11:44:35.506Z,19.96
2019-05-29T11:45:36.084Z,19.87
2019-05-29T11:46:35.575Z,19.97
2019-05-29T11:47:35.456Z,19.89
2019-05-29T11:48:35.469Z,19.71
2019-05-29T11:49:35.573Z,19.39
2019-05-29T11:50:35.428Z,18.98
2019-05-29T11:51:35.412Z,18.91
2019-05-29T11:52:42.843Z,19.00
2019-05-29T11:53:36.395Z,19.07
2019-05-29T11:54:35.419Z,19.08
2019-05-29T11:55:35.374Z,19.26
2019-05-29T11:56:35.359Z,19.39
2019-05-29T11:57:39.458Z,19.27
2019-05-29T11:58:35.362Z,19.30
2019-05-29T11:59:35.425Z,19.37
2019-05-29T12:00:35.321Z,19.92
2019-05-29T12:01:49.606Z,20.18
2019-05-29T12:02:36.339Z,20.29
2019-05-29T12:03:35.300Z,20.48
2019-05-29T12:04:35.273Z,20.64
2019-05-29T12:05:35.273Z,20.42
2019-05-29T12:06:35.333Z,20.29
2019-05-29T12:07:35.244Z,20.63
2019-05-29T12:08:35.309Z,20.90
2019-05-29T12:09:35.521Z,21.11
2019-05-29T12:10:35.252Z,21.28
2019-05-29T12:11:35.196Z,21.18
2019-05-29T12:12:35.179Z,21.10
2019-05-29T12:13:35.176Z,21.08
2019-05-29T12:14:55.632Z,21.25
2019-05-29T12:15:36.327Z,21.63
2019-05-29T12:16:35.166Z,21.66
2019-05-29T12:17:35.416Z,21.48
2019-05-29T12:18:35.139Z,21.35
2019-05-29T12:19:35.165Z,21.28
2019-05-29T12:20:35.105Z,21.16
2019-05-29T12:21:35.086Z,21.00
2019-05-29T12:22:35.127Z,21.07
2019-05-29T12:23:35.903Z,21.19
2019-05-29T12:24:35.069Z,21.41
2019-05-29T12:25:35.123Z,21.30
2019-05-29T12:26:35.067Z,21.34
2019-05-29T12:27:35.006Z,21.40
2019-05-29T12:28:35.044Z,21.30
2019-05-29T12:29:35.743Z,21.11
2019-05-29T12:30:34.977Z,21.00
2019-05-29T12:31:35.030Z,21.14
2019-05-29T12:32:34.966Z,21.22
2019-05-29T12:33:35.009Z,21.53
2019-05-29T12:34:34.941Z,21.44
2019-05-29T12:35:34.974Z,21.32
2019-05-29T12:36:34.918Z,20.71
2019-05-29T12:37:34.905Z,20.80
2019-05-29T12:38:34.881Z,21.04
2019-05-29T12:39:34.933Z,21.19
2019-05-29T12:40:34.905Z,21.14
2019-05-29T12:41:34.957Z,21.80
2019-05-29T12:42:34.894Z,21.80
2019-05-29T12:43:34.833Z,21.84
2019-05-29T12:44:34.876Z,22.07
2019-05-29T12:45:34.864Z,22.15
2019-05-29T12:46:34.811Z,22.44
2019-05-29T12:47:34.792Z,22.66
2019-05-29T12:48:34.779Z,22.58
2019-05-29T12:49:34.798Z,22.78
2019-05-29T12:50:35.038Z,22.88
2019-05-29T12:51:35.395Z,22.85
2019-05-29T12:52:34.810Z,22.85
2019-05-29T12:53:34.723Z,22.91
2019-05-29T12:54:34.709Z,22.67
2019-05-29T12:55:34.694Z,22.53
2019-05-29T12:56:34.744Z,22.23
2019-05-29T12:57:34.672Z,22.38